sensor_id;sensor_type;location;lat;lon;timestamp;P1;durP1;ratioP1;P2;durP2;ratioP2
83541;SDS011;73485;49.194;12.104;2023-12-14T00:01:29;10.20;;;5.07;;
83541;SDS011;73485;49.194;12.104;2023-12-14T00:03:57;10.82;;;5.05;;
83541;SDS011;73485;49.194;12.104;2023-12-14T00:06:25;13.43;;;5.90;;
83541;SDS011;73485;49.194;12.104;2023-12-14T00:08:54;10.05;;;4.82;;
83541;SDS011;73485;49.194;12.104;2023-12-14T00:11:21;11.85;;;5.60;;
83541;SDS011;73485;49.194;12.104;2023-12-14T00:13:49;11.23;;;4.93;;
83541;SDS011;73485;49.194;12.104;2023-12-14T00:16:16;11.50;;;5.22;;
83541;SDS011;73485;49.194;12.104;2023-12-14T00:18:44;11.82;;;5.63;;
83541;SDS011;73485;49.194;12.104;2023-12-14T00:21:12;9.63;;;5.50;;
83541;SDS011;73485;49.194;12.104;2023-12-14T00:23:39;11.23;;;4.53;;
83541;SDS011;73485;49.194;12.104;2023-12-14T00:26:08;11.80;;;4.97;;
83541;SDS011;73485;49.194;12.104;2023-12-14T00:28:36;9.38;;;4.63;;
83541;SDS011;73485;49.194;12.104;2023-12-14T00:31:04;12.05;;;5.45;;
83541;SDS011;73485;49.194;12.104;2023-12-14T00:33:31;9.00;;;4.65;;
83541;SDS011;73485;49.194;12.104;2023-12-14T00:35:59;9.35;;;4.90;;
83541;SDS011;73485;49.194;12.104;2023-12-14T00:38:27;7.05;;;4.18;;
83541;SDS011;73485;49.194;12.104;2023-12-14T00:40:54;8.80;;;4.68;;
83541;SDS011;73485;49.194;12.104;2023-12-14T00:43:23;6.32;;;3.45;;
83541;SDS011;73485;49.194;12.104;2023-12-14T00:45:51;6.38;;;3.33;;
83541;SDS011;73485;49.194;12.104;2023-12-14T00:48:19;5.40;;;3.05;;
83541;SDS011;73485;49.194;12.104;2023-12-14T00:50:46;8.18;;;3.83;;
83541;SDS011;73485;49.194;12.104;2023-12-14T00:53:14;4.15;;;3.03;;
83541;SDS011;73485;49.194;12.104;2023-12-14T00:55:42;8.20;;;3.50;;
83541;SDS011;73485;49.194;12.104;2023-12-14T00:58:11;5.72;;;3.35;;
83541;SDS011;73485;49.194;12.104;2023-12-14T01:00:40;6.40;;;4.00;;
83541;SDS011;73485;49.194;12.104;2023-12-14T01:03:07;6.13;;;3.58;;
83541;SDS011;73485;49.194;12.104;2023-12-14T01:05:35;6.90;;;3.63;;
83541;SDS011;73485;49.194;12.104;2023-12-14T01:08:02;6.97;;;4.05;;
83541;SDS011;73485;49.194;12.104;2023-12-14T01:10:30;9.38;;;4.03;;
83541;SDS011;73485;49.194;12.104;2023-12-14T01:12:59;8.43;;;4.07;;
83541;SDS011;73485;49.194;12.104;2023-12-14T01:15:27;6.85;;;4.00;;
83541;SDS011;73485;49.194;12.104;2023-12-14T01:17:56;6.28;;;3.55;;
83541;SDS011;73485;49.194;12.104;2023-12-14T01:20:24;9.45;;;3.78;;
83541;SDS011;73485;49.194;12.104;2023-12-14T01:22:51;6.70;;;3.80;;
83541;SDS011;73485;49.194;12.104;2023-12-14T01:25:19;8.23;;;3.97;;
83541;SDS011;73485;49.194;12.104;2023-12-14T01:27:47;8.73;;;4.65;;
83541;SDS011;73485;49.194;12.104;2023-12-14T01:30:14;8.20;;;4.15;;
83541;SDS011;73485;49.194;12.104;2023-12-14T01:32:42;7.72;;;3.67;;
83541;SDS011;73485;49.194;12.104;2023-12-14T01:35:11;8.63;;;3.78;;
83541;SDS011;73485;49.194;12.104;2023-12-14T01:37:39;6.90;;;3.17;;
83541;SDS011;73485;49.194;12.104;2023-12-14T01:40:07;7.47;;;3.30;;
83541;SDS011;73485;49.194;12.104;2023-12-14T01:42:35;10.30;;;3.28;;
83541;SDS011;73485;49.194;12.104;2023-12-14T01:45:03;6.93;;;3.63;;
83541;SDS011;73485;49.194;12.104;2023-12-14T01:47:31;4.90;;;2.95;;
83541;SDS011;73485;49.194;12.104;2023-12-14T01:49:59;4.88;;;2.83;;
83541;SDS011;73485;49.194;12.104;2023-12-14T01:52:28;5.03;;;3.10;;
83541;SDS011;73485;49.194;12.104;2023-12-14T01:54:56;5.35;;;3.40;;
83541;SDS011;73485;49.194;12.104;2023-12-14T01:57:25;6.75;;;2.83;;
83541;SDS011;73485;49.194;12.104;2023-12-14T01:59:52;6.78;;;3.60;;
83541;SDS011;73485;49.194;12.104;2023-12-14T02:02:20;5.03;;;3.05;;
83541;SDS011;73485;49.194;12.104;2023-12-14T02:04:48;4.95;;;3.13;;
83541;SDS011;73485;49.194;12.104;2023-12-14T02:07:15;6.20;;;3.10;;
83541;SDS011;73485;49.194;12.104;2023-12-14T02:09:44;5.63;;;3.22;;
83541;SDS011;73485;49.194;12.104;2023-12-14T02:12:12;3.95;;;2.88;;
83541;SDS011;73485;49.194;12.104;2023-12-14T02:14:39;5.68;;;3.03;;
83541;SDS011;73485;49.194;12.104;2023-12-14T02:17:07;4.93;;;3.03;;
83541;SDS011;73485;49.194;12.104;2023-12-14T02:19:35;6.00;;;3.83;;
83541;SDS011;73485;49.194;12.104;2023-12-14T02:22:02;6.05;;;3.35;;
83541;SDS011;73485;49.194;12.104;2023-12-14T02:24:31;5.32;;;3.15;;
83541;SDS011;73485;49.194;12.104;2023-12-14T02:26:59;6.75;;;3.30;;
83541;SDS011;73485;49.194;12.104;2023-12-14T02:29:29;6.78;;;3.67;;
83541;SDS011;73485;49.194;12.104;2023-12-14T02:31:56;6.07;;;3.63;;
83541;SDS011;73485;49.194;12.104;2023-12-14T02:34:24;6.10;;;3.45;;
83541;SDS011;73485;49.194;12.104;2023-12-14T02:36:52;6.72;;;3.97;;
83541;SDS011;73485;49.194;12.104;2023-12-14T02:39:20;7.15;;;3.45;;
83541;SDS011;73485;49.194;12.104;2023-12-14T02:41:48;6.63;;;3.40;;
83541;SDS011;73485;49.194;12.104;2023-12-14T02:44:16;6.38;;;3.75;;
83541;SDS011;73485;49.194;12.104;2023-12-14T02:46:44;6.72;;;3.35;;
83541;SDS011;73485;49.194;12.104;2023-12-14T02:49:11;5.85;;;3.58;;
83541;SDS011;73485;49.194;12.104;2023-12-14T02:51:39;9.90;;;4.53;;
83541;SDS011;73485;49.194;12.104;2023-12-14T02:54:07;7.05;;;3.72;;
83541;SDS011;73485;49.194;12.104;2023-12-14T02:56:34;6.28;;;3.72;;
83541;SDS011;73485;49.194;12.104;2023-12-14T02:59:03;7.15;;;3.70;;
83541;SDS011;73485;49.194;12.104;2023-12-14T03:01:31;7.57;;;4.15;;
83541;SDS011;73485;49.194;12.104;2023-12-14T03:03:58;6.35;;;3.40;;
83541;SDS011;73485;49.194;12.104;2023-12-14T03:06:26;12.50;;;3.65;;
83541;SDS011;73485;49.194;12.104;2023-12-14T03:08:54;7.68;;;4.05;;
83541;SDS011;73485;49.194;12.104;2023-12-14T03:11:21;7.63;;;4.43;;
83541;SDS011;73485;49.194;12.104;2023-12-14T03:13:50;5.60;;;3.83;;
83541;SDS011;73485;49.194;12.104;2023-12-14T03:16:19;5.32;;;3.45;;
83541;SDS011;73485;49.194;12.104;2023-12-14T03:18:47;12.23;;;5.53;;
83541;SDS011;73485;49.194;12.104;2023-12-14T03:21:18;9.35;;;4.60;;
83541;SDS011;73485;49.194;12.104;2023-12-14T03:23:46;9.60;;;5.03;;
83541;SDS011;73485;49.194;12.104;2023-12-14T03:26:14;13.32;;;4.47;;
83541;SDS011;73485;49.194;12.104;2023-12-14T03:28:42;12.13;;;5.13;;
83541;SDS011;73485;49.194;12.104;2023-12-14T03:31:10;10.52;;;4.68;;
83541;SDS011;73485;49.194;12.104;2023-12-14T03:33:40;13.65;;;5.03;;
83541;SDS011;73485;49.194;12.104;2023-12-14T03:36:08;12.63;;;5.38;;
83541;SDS011;73485;49.194;12.104;2023-12-14T03:38:35;10.88;;;4.72;;
83541;SDS011;73485;49.194;12.104;2023-12-14T03:41:03;9.85;;;5.20;;
83541;SDS011;73485;49.194;12.104;2023-12-14T03:43:31;9.88;;;4.90;;
83541;SDS011;73485;49.194;12.104;2023-12-14T03:45:58;14.18;;;5.43;;
83541;SDS011;73485;49.194;12.104;2023-12-14T03:48:26;8.13;;;4.88;;
83541;SDS011;73485;49.194;12.104;2023-12-14T03:50:55;9.48;;;5.00;;
83541;SDS011;73485;49.194;12.104;2023-12-14T03:53:23;7.95;;;4.55;;
83541;SDS011;73485;49.194;12.104;2023-12-14T03:55:50;11.98;;;5.30;;
83541;SDS011;73485;49.194;12.104;2023-12-14T03:58:18;10.07;;;5.25;;
83541;SDS011;73485;49.194;12.104;2023-12-14T04:00:46;9.30;;;5.07;;
83541;SDS011;73485;49.194;12.104;2023-12-14T04:03:13;10.02;;;5.28;;
83541;SDS011;73485;49.194;12.104;2023-12-14T04:05:41;12.32;;;5.20;;
83541;SDS011;73485;49.194;12.104;2023-12-14T04:08:12;11.02;;;5.28;;
83541;SDS011;73485;49.194;12.104;2023-12-14T04:10:39;11.60;;;4.82;;
83541;SDS011;73485;49.194;12.104;2023-12-14T04:13:07;11.77;;;6.10;;
83541;SDS011;73485;49.194;12.104;2023-12-14T04:15:34;9.95;;;5.60;;
83541;SDS011;73485;49.194;12.104;2023-12-14T04:18:02;9.95;;;5.45;;
83541;SDS011;73485;49.194;12.104;2023-12-14T04:20:30;10.95;;;5.85;;
83541;SDS011;73485;49.194;12.104;2023-12-14T04:22:58;11.95;;;5.93;;
83541;SDS011;73485;49.194;12.104;2023-12-14T04:25:27;14.02;;;6.93;;
83541;SDS011;73485;49.194;12.104;2023-12-14T04:27:54;13.05;;;5.25;;
83541;SDS011;73485;49.194;12.104;2023-12-14T04:30:22;13.10;;;5.53;;
83541;SDS011;73485;49.194;12.104;2023-12-14T04:32:50;11.05;;;5.43;;
83541;SDS011;73485;49.194;12.104;2023-12-14T04:35:17;14.95;;;5.63;;
83541;SDS011;73485;49.194;12.104;2023-12-14T04:37:44;10.88;;;5.40;;
83541;SDS011;73485;49.194;12.104;2023-12-14T04:40:12;11.10;;;5.35;;
83541;SDS011;73485;49.194;12.104;2023-12-14T04:42:41;14.65;;;5.60;;
83541;SDS011;73485;49.194;12.104;2023-12-14T04:45:08;11.02;;;5.45;;
83541;SDS011;73485;49.194;12.104;2023-12-14T04:47:36;9.52;;;5.53;;
83541;SDS011;73485;49.194;12.104;2023-12-14T04:50:04;10.88;;;5.72;;
83541;SDS011;73485;49.194;12.104;2023-12-14T04:52:32;12.32;;;5.50;;
83541;SDS011;73485;49.194;12.104;2023-12-14T04:55:00;14.23;;;5.60;;
83541;SDS011;73485;49.194;12.104;2023-12-14T04:57:28;13.18;;;6.30;;
83541;SDS011;73485;49.194;12.104;2023-12-14T04:59:57;12.73;;;6.18;;
83541;SDS011;73485;49.194;12.104;2023-12-14T05:02:25;21.08;;;6.65;;
83541;SDS011;73485;49.194;12.104;2023-12-14T05:04:52;15.70;;;7.72;;
83541;SDS011;73485;49.194;12.104;2023-12-14T05:07:20;16.83;;;7.85;;
83541;SDS011;73485;49.194;12.104;2023-12-14T05:09:50;20.92;;;7.43;;
83541;SDS011;73485;49.194;12.104;2023-12-14T05:12:17;16.48;;;6.47;;
83541;SDS011;73485;49.194;12.104;2023-12-14T05:14:45;10.75;;;5.90;;
83541;SDS011;73485;49.194;12.104;2023-12-14T05:17:14;11.63;;;5.68;;
83541;SDS011;73485;49.194;12.104;2023-12-14T05:19:41;16.83;;;6.10;;
83541;SDS011;73485;49.194;12.104;2023-12-14T05:22:09;12.95;;;6.22;;
83541;SDS011;73485;49.194;12.104;2023-12-14T05:24:37;14.13;;;6.00;;
83541;SDS011;73485;49.194;12.104;2023-12-14T05:27:05;12.70;;;5.65;;
83541;SDS011;73485;49.194;12.104;2023-12-14T05:29:32;16.70;;;5.53;;
83541;SDS011;73485;49.194;12.104;2023-12-14T05:32:00;14.82;;;5.95;;
83541;SDS011;73485;49.194;12.104;2023-12-14T05:34:29;13.85;;;5.43;;
83541;SDS011;73485;49.194;12.104;2023-12-14T05:36:57;15.10;;;6.05;;
83541;SDS011;73485;49.194;12.104;2023-12-14T05:39:25;12.48;;;5.97;;
83541;SDS011;73485;49.194;12.104;2023-12-14T05:41:52;19.85;;;6.53;;
83541;SDS011;73485;49.194;12.104;2023-12-14T05:44:20;15.23;;;6.38;;
83541;SDS011;73485;49.194;12.104;2023-12-14T05:46:49;13.15;;;5.78;;
83541;SDS011;73485;49.194;12.104;2023-12-14T05:49:16;15.07;;;6.10;;
83541;SDS011;73485;49.194;12.104;2023-12-14T05:51:45;12.27;;;5.72;;
83541;SDS011;73485;49.194;12.104;2023-12-14T05:54:13;11.38;;;6.07;;
83541;SDS011;73485;49.194;12.104;2023-12-14T05:56:41;12.38;;;6.07;;
83541;SDS011;73485;49.194;12.104;2023-12-14T05:59:08;10.60;;;6.10;;
83541;SDS011;73485;49.194;12.104;2023-12-14T06:01:36;18.10;;;6.35;;
83541;SDS011;73485;49.194;12.104;2023-12-14T06:04:04;14.70;;;7.03;;
83541;SDS011;73485;49.194;12.104;2023-12-14T06:06:31;15.45;;;6.75;;
83541;SDS011;73485;49.194;12.104;2023-12-14T06:09:00;16.45;;;6.60;;
83541;SDS011;73485;49.194;12.104;2023-12-14T06:11:28;19.42;;;7.53;;
83541;SDS011;73485;49.194;12.104;2023-12-14T06:13:56;18.48;;;7.40;;
83541;SDS011;73485;49.194;12.104;2023-12-14T06:16:25;14.07;;;6.30;;
83541;SDS011;73485;49.194;12.104;2023-12-14T06:18:53;14.75;;;7.20;;
83541;SDS011;73485;49.194;12.104;2023-12-14T06:21:21;14.77;;;6.93;;
83541;SDS011;73485;49.194;12.104;2023-12-14T06:23:51;16.77;;;7.05;;
83541;SDS011;73485;49.194;12.104;2023-12-14T06:26:20;16.10;;;7.15;;
83541;SDS011;73485;49.194;12.104;2023-12-14T06:28:48;26.77;;;9.88;;
83541;SDS011;73485;49.194;12.104;2023-12-14T06:31:16;40.10;;;12.63;;
83541;SDS011;73485;49.194;12.104;2023-12-14T06:33:46;16.73;;;6.75;;
83541;SDS011;73485;49.194;12.104;2023-12-14T06:36:15;20.42;;;8.02;;
83541;SDS011;73485;49.194;12.104;2023-12-14T06:38:43;13.32;;;6.13;;
83541;SDS011;73485;49.194;12.104;2023-12-14T06:41:18;14.15;;;6.72;;
83541;SDS011;73485;49.194;12.104;2023-12-14T06:43:47;12.00;;;6.00;;
83541;SDS011;73485;49.194;12.104;2023-12-14T06:46:14;16.33;;;6.43;;
83541;SDS011;73485;49.194;12.104;2023-12-14T06:48:42;24.90;;;11.00;;
83541;SDS011;73485;49.194;12.104;2023-12-14T06:51:10;17.15;;;7.93;;
83541;SDS011;73485;49.194;12.104;2023-12-14T06:53:39;14.05;;;7.30;;
83541;SDS011;73485;49.194;12.104;2023-12-14T06:56:08;15.50;;;7.22;;
83541;SDS011;73485;49.194;12.104;2023-12-14T06:58:37;13.27;;;6.93;;
83541;SDS011;73485;49.194;12.104;2023-12-14T07:01:06;12.65;;;6.40;;
83541;SDS011;73485;49.194;12.104;2023-12-14T07:03:34;12.05;;;6.40;;
83541;SDS011;73485;49.194;12.104;2023-12-14T07:06:02;12.65;;;5.82;;
83541;SDS011;73485;49.194;12.104;2023-12-14T07:08:31;16.08;;;6.25;;
83541;SDS011;73485;49.194;12.104;2023-12-14T07:10:59;11.00;;;4.97;;
83541;SDS011;73485;49.194;12.104;2023-12-14T07:13:26;12.32;;;5.22;;
83541;SDS011;73485;49.194;12.104;2023-12-14T07:15:54;12.05;;;5.90;;
83541;SDS011;73485;49.194;12.104;2023-12-14T07:18:23;13.07;;;5.63;;
83541;SDS011;73485;49.194;12.104;2023-12-14T07:20:50;12.60;;;5.70;;
83541;SDS011;73485;49.194;12.104;2023-12-14T07:23:18;11.57;;;5.13;;
83541;SDS011;73485;49.194;12.104;2023-12-14T07:25:46;10.88;;;4.80;;
83541;SDS011;73485;49.194;12.104;2023-12-14T07:28:13;11.80;;;5.68;;
83541;SDS011;73485;49.194;12.104;2023-12-14T07:30:41;12.20;;;6.00;;
83541;SDS011;73485;49.194;12.104;2023-12-14T07:33:08;13.00;;;5.78;;
83541;SDS011;73485;49.194;12.104;2023-12-14T07:35:37;11.75;;;5.20;;
83541;SDS011;73485;49.194;12.104;2023-12-14T07:38:05;11.52;;;5.40;;
83541;SDS011;73485;49.194;12.104;2023-12-14T07:40:33;10.93;;;5.85;;
83541;SDS011;73485;49.194;12.104;2023-12-14T07:43:01;12.75;;;5.82;;
83541;SDS011;73485;49.194;12.104;2023-12-14T07:45:28;11.32;;;5.32;;
83541;SDS011;73485;49.194;12.104;2023-12-14T07:47:56;13.85;;;6.40;;
83541;SDS011;73485;49.194;12.104;2023-12-14T07:50:25;14.95;;;7.40;;
83541;SDS011;73485;49.194;12.104;2023-12-14T07:52:54;18.17;;;6.82;;
83541;SDS011;73485;49.194;12.104;2023-12-14T07:55:21;21.30;;;7.15;;
83541;SDS011;73485;49.194;12.104;2023-12-14T07:57:49;10.32;;;6.05;;
83541;SDS011;73485;49.194;12.104;2023-12-14T08:00:17;13.27;;;5.60;;
83541;SDS011;73485;49.194;12.104;2023-12-14T08:02:45;11.70;;;7.03;;
83541;SDS011;73485;49.194;12.104;2023-12-14T08:05:13;13.98;;;6.18;;
83541;SDS011;73485;49.194;12.104;2023-12-14T08:07:40;15.20;;;6.45;;
83541;SDS011;73485;49.194;12.104;2023-12-14T08:10:09;14.20;;;6.10;;
83541;SDS011;73485;49.194;12.104;2023-12-14T08:12:37;14.05;;;6.35;;
83541;SDS011;73485;49.194;12.104;2023-12-14T08:15:05;13.43;;;6.50;;
83541;SDS011;73485;49.194;12.104;2023-12-14T08:17:34;15.60;;;6.85;;
83541;SDS011;73485;49.194;12.104;2023-12-14T08:20:02;13.30;;;5.55;;
83541;SDS011;73485;49.194;12.104;2023-12-14T08:22:35;10.52;;;5.40;;
83541;SDS011;73485;49.194;12.104;2023-12-14T08:25:03;25.20;;;9.40;;
83541;SDS011;73485;49.194;12.104;2023-12-14T08:27:32;20.00;;;8.63;;
83541;SDS011;73485;49.194;12.104;2023-12-14T08:30:00;12.10;;;6.40;;
83541;SDS011;73485;49.194;12.104;2023-12-14T08:32:28;13.27;;;5.82;;
83541;SDS011;73485;49.194;12.104;2023-12-14T08:34:55;10.30;;;5.15;;
83541;SDS011;73485;49.194;12.104;2023-12-14T08:37:23;19.55;;;6.10;;
83541;SDS011;73485;49.194;12.104;2023-12-14T08:39:51;11.10;;;5.50;;
83541;SDS011;73485;49.194;12.104;2023-12-14T08:42:21;10.60;;;5.10;;
83541;SDS011;73485;49.194;12.104;2023-12-14T08:44:50;11.82;;;5.22;;
83541;SDS011;73485;49.194;12.104;2023-12-14T08:47:18;9.18;;;5.00;;
83541;SDS011;73485;49.194;12.104;2023-12-14T08:49:45;10.07;;;5.35;;
83541;SDS011;73485;49.194;12.104;2023-12-14T08:52:13;10.48;;;4.90;;
83541;SDS011;73485;49.194;12.104;2023-12-14T08:54:41;9.35;;;5.38;;
83541;SDS011;73485;49.194;12.104;2023-12-14T08:57:09;9.07;;;5.00;;
83541;SDS011;73485;49.194;12.104;2023-12-14T08:59:37;12.60;;;5.05;;
83541;SDS011;73485;49.194;12.104;2023-12-14T09:02:11;11.15;;;4.72;;
83541;SDS011;73485;49.194;12.104;2023-12-14T09:04:38;9.80;;;4.88;;
83541;SDS011;73485;49.194;12.104;2023-12-14T09:07:06;12.18;;;5.07;;
83541;SDS011;73485;49.194;12.104;2023-12-14T09:09:34;11.10;;;5.28;;
83541;SDS011;73485;49.194;12.104;2023-12-14T09:12:01;9.68;;;5.22;;
83541;SDS011;73485;49.194;12.104;2023-12-14T09:14:29;11.38;;;5.32;;
83541;SDS011;73485;49.194;12.104;2023-12-14T09:16:57;8.30;;;4.55;;
83541;SDS011;73485;49.194;12.104;2023-12-14T09:19:28;11.15;;;4.68;;
83541;SDS011;73485;49.194;12.104;2023-12-14T09:21:56;6.80;;;4.03;;
83541;SDS011;73485;49.194;12.104;2023-12-14T09:24:24;10.27;;;5.15;;
83541;SDS011;73485;49.194;12.104;2023-12-14T09:26:52;10.98;;;4.55;;
83541;SDS011;73485;49.194;12.104;2023-12-14T09:29:20;11.20;;;4.35;;
83541;SDS011;73485;49.194;12.104;2023-12-14T09:31:48;13.27;;;5.05;;
83541;SDS011;73485;49.194;12.104;2023-12-14T09:34:16;7.88;;;4.53;;
83541;SDS011;73485;49.194;12.104;2023-12-14T09:36:45;9.75;;;4.57;;
83541;SDS011;73485;49.194;12.104;2023-12-14T09:39:13;7.88;;;4.80;;
83541;SDS011;73485;49.194;12.104;2023-12-14T09:41:41;10.13;;;4.97;;
83541;SDS011;73485;49.194;12.104;2023-12-14T09:44:09;11.50;;;5.10;;
83541;SDS011;73485;49.194;12.104;2023-12-14T09:46:37;10.48;;;5.00;;
83541;SDS011;73485;49.194;12.104;2023-12-14T09:49:08;10.13;;;4.40;;
83541;SDS011;73485;49.194;12.104;2023-12-14T09:51:36;10.73;;;5.10;;
83541;SDS011;73485;49.194;12.104;2023-12-14T09:54:06;9.27;;;5.10;;
83541;SDS011;73485;49.194;12.104;2023-12-14T09:59:03;10.60;;;5.10;;
83541;SDS011;73485;49.194;12.104;2023-12-14T10:01:31;8.15;;;4.80;;
83541;SDS011;73485;49.194;12.104;2023-12-14T10:04:07;9.30;;;4.93;;
83541;SDS011;73485;49.194;12.104;2023-12-14T10:06:35;13.55;;;5.28;;
83541;SDS011;73485;49.194;12.104;2023-12-14T10:09:03;11.55;;;5.10;;
83541;SDS011;73485;49.194;12.104;2023-12-14T10:11:32;10.50;;;4.70;;
83541;SDS011;73485;49.194;12.104;2023-12-14T10:14:00;9.45;;;5.05;;
83541;SDS011;73485;49.194;12.104;2023-12-14T10:16:28;10.23;;;5.00;;
83541;SDS011;73485;49.194;12.104;2023-12-14T10:18:57;12.40;;;5.30;;
83541;SDS011;73485;49.194;12.104;2023-12-14T10:21:25;10.55;;;4.57;;
83541;SDS011;73485;49.194;12.104;2023-12-14T10:23:54;10.10;;;5.82;;
83541;SDS011;73485;49.194;12.104;2023-12-14T10:26:22;12.48;;;5.35;;
83541;SDS011;73485;49.194;12.104;2023-12-14T10:28:53;11.10;;;4.65;;
83541;SDS011;73485;49.194;12.104;2023-12-14T10:31:20;12.68;;;4.57;;
83541;SDS011;73485;49.194;12.104;2023-12-14T10:33:48;10.98;;;5.53;;
83541;SDS011;73485;49.194;12.104;2023-12-14T10:36:17;12.30;;;5.70;;
83541;SDS011;73485;49.194;12.104;2023-12-14T10:38:46;10.88;;;5.35;;
83541;SDS011;73485;49.194;12.104;2023-12-14T10:41:15;15.27;;;6.25;;
83541;SDS011;73485;49.194;12.104;2023-12-14T10:43:44;20.30;;;7.22;;
83541;SDS011;73485;49.194;12.104;2023-12-14T10:46:21;14.10;;;5.70;;
83541;SDS011;73485;49.194;12.104;2023-12-14T10:48:49;11.68;;;6.40;;
83541;SDS011;73485;49.194;12.104;2023-12-14T10:51:16;15.82;;;6.53;;
83541;SDS011;73485;49.194;12.104;2023-12-14T10:53:45;12.40;;;6.30;;
83541;SDS011;73485;49.194;12.104;2023-12-14T10:56:14;12.07;;;6.55;;
83541;SDS011;73485;49.194;12.104;2023-12-14T10:58:46;11.43;;;5.05;;
83541;SDS011;73485;49.194;12.104;2023-12-14T11:01:15;11.30;;;5.32;;
83541;SDS011;73485;49.194;12.104;2023-12-14T11:03:45;10.70;;;6.07;;
83541;SDS011;73485;49.194;12.104;2023-12-14T11:06:20;13.82;;;6.53;;
83541;SDS011;73485;49.194;12.104;2023-12-14T11:08:50;12.80;;;6.65;;
83541;SDS011;73485;49.194;12.104;2023-12-14T11:11:19;12.23;;;5.82;;
83541;SDS011;73485;49.194;12.104;2023-12-14T11:13:47;11.50;;;5.55;;
83541;SDS011;73485;49.194;12.104;2023-12-14T11:16:19;9.82;;;5.95;;
83541;SDS011;73485;49.194;12.104;2023-12-14T11:18:48;12.82;;;6.07;;
83541;SDS011;73485;49.194;12.104;2023-12-14T11:22:13;14.38;;;6.45;;
83541;SDS011;73485;49.194;12.104;2023-12-14T11:24:53;11.20;;;5.45;;
83541;SDS011;73485;49.194;12.104;2023-12-14T11:27:28;9.77;;;4.88;;
83541;SDS011;73485;49.194;12.104;2023-12-14T11:29:56;12.80;;;5.30;;
83541;SDS011;73485;49.194;12.104;2023-12-14T11:32:26;12.38;;;5.45;;
83541;SDS011;73485;49.194;12.104;2023-12-14T11:34:57;12.63;;;5.85;;
83541;SDS011;73485;49.194;12.104;2023-12-14T11:37:24;11.25;;;5.40;;
83541;SDS011;73485;49.194;12.104;2023-12-14T11:39:52;11.27;;;6.30;;
83541;SDS011;73485;49.194;12.104;2023-12-14T11:42:21;9.93;;;5.07;;
83541;SDS011;73485;49.194;12.104;2023-12-14T11:44:48;18.40;;;6.03;;
83541;SDS011;73485;49.194;12.104;2023-12-14T11:47:16;12.48;;;5.50;;
83541;SDS011;73485;49.194;12.104;2023-12-14T11:49:43;10.80;;;5.25;;
83541;SDS011;73485;49.194;12.104;2023-12-14T11:52:12;11.40;;;4.85;;
83541;SDS011;73485;49.194;12.104;2023-12-14T11:54:40;10.63;;;5.68;;
83541;SDS011;73485;49.194;12.104;2023-12-14T11:57:08;11.43;;;5.43;;
83541;SDS011;73485;49.194;12.104;2023-12-14T11:59:36;14.40;;;5.88;;
83541;SDS011;73485;49.194;12.104;2023-12-14T12:02:04;8.88;;;4.88;;
83541;SDS011;73485;49.194;12.104;2023-12-14T12:04:32;9.05;;;5.20;;
83541;SDS011;73485;49.194;12.104;2023-12-14T12:07:00;10.00;;;5.10;;
83541;SDS011;73485;49.194;12.104;2023-12-14T12:09:34;9.90;;;5.45;;
83541;SDS011;73485;49.194;12.104;2023-12-14T12:12:05;9.63;;;4.47;;
83541;SDS011;73485;49.194;12.104;2023-12-14T12:14:33;8.60;;;4.80;;
83541;SDS011;73485;49.194;12.104;2023-12-14T12:17:02;13.52;;;4.82;;
83541;SDS011;73485;49.194;12.104;2023-12-14T12:22:00;11.95;;;5.00;;
83541;SDS011;73485;49.194;12.104;2023-12-14T12:24:28;14.30;;;5.60;;
83541;SDS011;73485;49.194;12.104;2023-12-14T12:27:00;10.05;;;4.60;;
83541;SDS011;73485;49.194;12.104;2023-12-14T12:29:28;8.63;;;3.95;;
83541;SDS011;73485;49.194;12.104;2023-12-14T12:31:56;10.77;;;5.50;;
83541;SDS011;73485;49.194;12.104;2023-12-14T12:34:24;11.65;;;5.25;;
83541;SDS011;73485;49.194;12.104;2023-12-14T12:36:51;8.05;;;4.68;;
83541;SDS011;73485;49.194;12.104;2023-12-14T12:39:20;13.57;;;5.03;;
83541;SDS011;73485;49.194;12.104;2023-12-14T12:41:48;9.60;;;4.55;;
83541;SDS011;73485;49.194;12.104;2023-12-14T12:44:17;8.45;;;4.47;;
83541;SDS011;73485;49.194;12.104;2023-12-14T12:46:44;11.52;;;5.50;;
83541;SDS011;73485;49.194;12.104;2023-12-14T12:51:55;9.68;;;4.45;;
83541;SDS011;73485;49.194;12.104;2023-12-14T12:54:22;10.57;;;4.82;;
83541;SDS011;73485;49.194;12.104;2023-12-14T12:56:50;10.07;;;4.60;;
83541;SDS011;73485;49.194;12.104;2023-12-14T12:59:31;11.13;;;5.40;;
83541;SDS011;73485;49.194;12.104;2023-12-14T13:01:59;14.88;;;5.82;;
83541;SDS011;73485;49.194;12.104;2023-12-14T13:04:28;11.27;;;5.43;;
83541;SDS011;73485;49.194;12.104;2023-12-14T13:06:57;9.18;;;5.00;;
83541;SDS011;73485;49.194;12.104;2023-12-14T13:09:28;9.82;;;5.38;;
83541;SDS011;73485;49.194;12.104;2023-12-14T13:11:55;11.20;;;5.85;;
83541;SDS011;73485;49.194;12.104;2023-12-14T13:14:23;10.25;;;5.53;;
83541;SDS011;73485;49.194;12.104;2023-12-14T13:16:52;12.73;;;5.28;;
83541;SDS011;73485;49.194;12.104;2023-12-14T13:19:20;12.10;;;5.85;;
83541;SDS011;73485;49.194;12.104;2023-12-14T13:21:49;15.73;;;6.00;;
83541;SDS011;73485;49.194;12.104;2023-12-14T13:24:17;10.95;;;5.25;;
83541;SDS011;73485;49.194;12.104;2023-12-14T13:26:44;8.90;;;4.82;;
83541;SDS011;73485;49.194;12.104;2023-12-14T13:29:12;11.48;;;4.97;;
83541;SDS011;73485;49.194;12.104;2023-12-14T13:31:40;13.23;;;5.60;;
83541;SDS011;73485;49.194;12.104;2023-12-14T13:34:09;10.32;;;4.97;;
83541;SDS011;73485;49.194;12.104;2023-12-14T13:36:36;9.20;;;5.50;;
83541;SDS011;73485;49.194;12.104;2023-12-14T13:39:04;9.00;;;5.38;;
83541;SDS011;73485;49.194;12.104;2023-12-14T13:41:32;13.27;;;5.47;;
83541;SDS011;73485;49.194;12.104;2023-12-14T13:44:15;8.88;;;5.15;;
83541;SDS011;73485;49.194;12.104;2023-12-14T13:46:43;11.55;;;5.82;;
83541;SDS011;73485;49.194;12.104;2023-12-14T13:49:12;9.68;;;5.25;;
83541;SDS011;73485;49.194;12.104;2023-12-14T13:51:39;9.20;;;5.45;;
83541;SDS011;73485;49.194;12.104;2023-12-14T13:54:07;9.07;;;5.38;;
83541;SDS011;73485;49.194;12.104;2023-12-14T13:56:35;9.07;;;4.82;;
83541;SDS011;73485;49.194;12.104;2023-12-14T13:59:03;11.98;;;5.88;;
83541;SDS011;73485;49.194;12.104;2023-12-14T14:01:30;9.05;;;4.72;;
83541;SDS011;73485;49.194;12.104;2023-12-14T14:03:58;8.13;;;4.60;;
83541;SDS011;73485;49.194;12.104;2023-12-14T14:06:27;12.63;;;5.03;;
83541;SDS011;73485;49.194;12.104;2023-12-14T14:08:55;10.73;;;5.30;;
83541;SDS011;73485;49.194;12.104;2023-12-14T14:11:22;8.73;;;5.13;;
83541;SDS011;73485;49.194;12.104;2023-12-14T14:13:50;12.90;;;5.82;;
83541;SDS011;73485;49.194;12.104;2023-12-14T14:16:18;12.13;;;5.38;;
83541;SDS011;73485;49.194;12.104;2023-12-14T14:18:50;10.35;;;5.72;;
83541;SDS011;73485;49.194;12.104;2023-12-14T14:21:18;10.13;;;4.97;;
83541;SDS011;73485;49.194;12.104;2023-12-14T14:23:46;9.60;;;4.68;;
83541;SDS011;73485;49.194;12.104;2023-12-14T14:26:14;9.48;;;4.53;;
83541;SDS011;73485;49.194;12.104;2023-12-14T14:28:42;9.93;;;5.03;;
83541;SDS011;73485;49.194;12.104;2023-12-14T14:31:09;14.30;;;5.03;;
83541;SDS011;73485;49.194;12.104;2023-12-14T14:33:37;10.23;;;5.00;;
83541;SDS011;73485;49.194;12.104;2023-12-14T14:36:05;8.50;;;5.13;;
83541;SDS011;73485;49.194;12.104;2023-12-14T14:38:34;10.82;;;4.97;;
83541;SDS011;73485;49.194;12.104;2023-12-14T14:41:03;9.13;;;4.80;;